罗盘
风向 的 Montreal International (Mirabel) Airport 6/24
风: 0 kt, 0 beaufort


改变
0 6.000 12.000 18.000 24.000 30.000
FEW 25.000 ft
METAR CYMX 301200Z 00000KT 45SM FEW250 04/04 A3038 RMK CI1 CI TR VIA CYQB SLP293

METAR Montreal International (Mirabel) Airport - CYMX/YMX

Montreal International (Mirabel) Airport是Montréal,加拿大中的中型机场。 该机场有2条跑道: 6/24 和 11/29. 该领域的国际民航组织标志是CYMX 它的国际航空运输协会代码是YMX.

这份报告是针对2022年9月30日 08:00, 当地时间在Montreal International (Mirabel) Airport进行的。

机场观察

可变方向的风很小或没有风。

可见度为45 mi。

有几云在25.000 ft的高度。 没有观察到天花板。

温度和风寒是4 °C。 露点为4 °C,相对湿度为100%。 海平面上的气压为30,38 inHg (QNH)。

白天

今天,太阳从06:53升起,在18:38降落。 这适用于Montreal International (Mirabel) Airport,世界夏令时可能有所不同。 当地时间与世界标准时间之间的时差为-4 小时。 夏令时目前正在进行中。

公司介绍

我们没有关于这个机场的公司信息。

体会

到Vliegles.nl去找飞行课程,跳伞和其他飞行体验。 浏览页面,了解Montreal International (Mirabel) Airport附近所有可用的活动。 你也可以使用搜索功能来寻找你所在地附近的特定飞行课程、跳伞或其他飞行体验。

跑道

Id 标题 侧风 逆风 侧风 %
6/24 045°-225°
11/29 098°-278°

逆风成分最大的方向会被突出显示,并用于横风计算。 这并不一定意味着这个方向在使用。

乌云

25.000 ft FEW 几云

温度 & 天气

温度 4 °C
露点 4 °C
相对湿度 100%
Kp-index 1 (0-9)

评论

SLP293海平面压力为30,40 inHg (30,40 inHg)
CI1 CI TR VIA CYQB

白天

日出
06:53
中午
12:46
日落
18:38 (10h 15m)

小工具

你想在你的网站上有一个关于Montreal International (Mirabel) Airport的当前航空天气(METAR)的小部件吗?

</> 显示HTML代码

我们和第三方通过cookies跟踪您在我们网站上的上网行为。如果您继续,我们认为您同意我们的cookie政策。 了解更多